sensor_id;sensor_type;location;lat;lon;timestamp;temperature;humidity
23114;DHT22;11726;50.122;8.832;2023-08-30T00:01:10;14.30;99.90
23114;DHT22;11726;50.122;8.832;2023-08-30T00:03:37;14.20;99.90
23114;DHT22;11726;50.122;8.832;2023-08-30T00:06:05;14.20;99.90
23114;DHT22;11726;50.122;8.832;2023-08-30T00:08:32;14.10;99.90
23114;DHT22;11726;50.122;8.832;2023-08-30T00:10:59;14.10;99.90
23114;DHT22;11726;50.122;8.832;2023-08-30T00:13:26;14.10;99.90
23114;DHT22;11726;50.122;8.832;2023-08-30T00:15:53;14.10;99.90
23114;DHT22;11726;50.122;8.832;2023-08-30T00:18:20;14.10;99.90
23114;DHT22;11726;50.122;8.832;2023-08-30T00:20:47;14.20;99.90
23114;DHT22;11726;50.122;8.832;2023-08-30T00:23:13;14.30;99.90
23114;DHT22;11726;50.122;8.832;2023-08-30T00:25:40;14.30;99.90
23114;DHT22;11726;50.122;8.832;2023-08-30T00:28:07;14.20;99.90
23114;DHT22;11726;50.122;8.832;2023-08-30T00:30:34;14.20;99.90
23114;DHT22;11726;50.122;8.832;2023-08-30T00:33:01;14.20;99.90
23114;DHT22;11726;50.122;8.832;2023-08-30T00:35:27;14.20;99.90
23114;DHT22;11726;50.122;8.832;2023-08-30T00:37:54;14.20;99.90
23114;DHT22;11726;50.122;8.832;2023-08-30T00:40:24;14.20;99.90
23114;DHT22;11726;50.122;8.832;2023-08-30T00:42:51;14.20;99.90
23114;DHT22;11726;50.122;8.832;2023-08-30T00:45:19;14.10;99.90
23114;DHT22;11726;50.122;8.832;2023-08-30T00:47:45;14.20;99.90
23114;DHT22;11726;50.122;8.832;2023-08-30T00:50:13;14.10;99.90
23114;DHT22;11726;50.122;8.832;2023-08-30T00:52:40;14.10;99.90
23114;DHT22;11726;50.122;8.832;2023-08-30T00:55:08;14.10;99.90
23114;DHT22;11726;50.122;8.832;2023-08-30T00:57:35;14.10;99.90
23114;DHT22;11726;50.122;8.832;2023-08-30T01:00:02;14.10;99.90
23114;DHT22;11726;50.122;8.832;2023-08-30T01:02:31;14.10;99.90
23114;DHT22;11726;50.122;8.832;2023-08-30T01:04:58;14.00;99.90
23114;DHT22;11726;50.122;8.832;2023-08-30T01:07:25;14.00;99.90
23114;DHT22;11726;50.122;8.832;2023-08-30T01:09:54;14.00;99.90
23114;DHT22;11726;50.122;8.832;2023-08-30T01:12:24;14.10;99.90
23114;DHT22;11726;50.122;8.832;2023-08-30T01:15:00;14.00;99.90
23114;DHT22;11726;50.122;8.832;2023-08-30T01:17:30;13.90;99.90
23114;DHT22;11726;50.122;8.832;2023-08-30T01:20:04;14.00;99.90
23114;DHT22;11726;50.122;8.832;2023-08-30T01:23:01;14.00;99.90
23114;DHT22;11726;50.122;8.832;2023-08-30T01:25:27;14.00;99.90
23114;DHT22;11726;50.122;8.832;2023-08-30T01:28:03;13.90;99.90
23114;DHT22;11726;50.122;8.832;2023-08-30T01:30:33;14.00;99.90
23114;DHT22;11726;50.122;8.832;2023-08-30T01:33:01;14.00;99.90
23114;DHT22;11726;50.122;8.832;2023-08-30T01:35:31;14.00;99.90
23114;DHT22;11726;50.122;8.832;2023-08-30T01:37:59;13.90;99.90
23114;DHT22;11726;50.122;8.832;2023-08-30T01:40:30;13.80;99.90
23114;DHT22;11726;50.122;8.832;2023-08-30T01:42:59;13.90;99.90
23114;DHT22;11726;50.122;8.832;2023-08-30T01:45:26;13.80;99.90
23114;DHT22;11726;50.122;8.832;2023-08-30T01:47:55;13.80;99.90
23114;DHT22;11726;50.122;8.832;2023-08-30T01:50:22;13.80;99.90
23114;DHT22;11726;50.122;8.832;2023-08-30T01:52:50;13.80;99.90
23114;DHT22;11726;50.122;8.832;2023-08-30T01:55:18;13.80;99.90
23114;DHT22;11726;50.122;8.832;2023-08-30T01:57:46;13.80;99.90
23114;DHT22;11726;50.122;8.832;2023-08-30T02:00:13;13.70;99.90
23114;DHT22;11726;50.122;8.832;2023-08-30T02:02:40;13.70;99.90
23114;DHT22;11726;50.122;8.832;2023-08-30T02:05:07;13.80;99.90
23114;DHT22;11726;50.122;8.832;2023-08-30T02:08:05;13.80;99.90
23114;DHT22;11726;50.122;8.832;2023-08-30T02:10:37;13.80;99.90
23114;DHT22;11726;50.122;8.832;2023-08-30T02:13:07;13.80;99.90
23114;DHT22;11726;50.122;8.832;2023-08-30T02:15:36;13.70;99.90
23114;DHT22;11726;50.122;8.832;2023-08-30T02:18:05;13.70;99.90
23114;DHT22;11726;50.122;8.832;2023-08-30T02:20:32;13.70;99.90
23114;DHT22;11726;50.122;8.832;2023-08-30T02:22:59;13.60;99.90
23114;DHT22;11726;50.122;8.832;2023-08-30T02:25:39;13.70;99.90
23114;DHT22;11726;50.122;8.832;2023-08-30T02:28:06;13.70;99.90
23114;DHT22;11726;50.122;8.832;2023-08-30T02:30:33;13.60;99.90
23114;DHT22;11726;50.122;8.832;2023-08-30T02:33:00;13.60;99.90
23114;DHT22;11726;50.122;8.832;2023-08-30T02:35:27;13.70;99.90
23114;DHT22;11726;50.122;8.832;2023-08-30T02:37:53;13.70;99.90
23114;DHT22;11726;50.122;8.832;2023-08-30T02:40:20;13.70;99.90
23114;DHT22;11726;50.122;8.832;2023-08-30T02:42:47;13.70;99.90
23114;DHT22;11726;50.122;8.832;2023-08-30T02:45:13;13.70;99.90
23114;DHT22;11726;50.122;8.832;2023-08-30T02:47:40;13.70;99.90
23114;DHT22;11726;50.122;8.832;2023-08-30T02:50:07;13.70;99.90
23114;DHT22;11726;50.122;8.832;2023-08-30T02:52:34;13.60;99.90
23114;DHT22;11726;50.122;8.832;2023-08-30T02:55:01;13.70;99.90
23114;DHT22;11726;50.122;8.832;2023-08-30T02:57:28;13.80;99.90
23114;DHT22;11726;50.122;8.832;2023-08-30T02:59:54;13.80;99.90
23114;DHT22;11726;50.122;8.832;2023-08-30T03:02:21;13.80;99.90
23114;DHT22;11726;50.122;8.832;2023-08-30T03:04:48;13.80;99.90
23114;DHT22;11726;50.122;8.832;2023-08-30T03:07:15;13.90;99.90
23114;DHT22;11726;50.122;8.832;2023-08-30T03:09:41;13.90;99.90
23114;DHT22;11726;50.122;8.832;2023-08-30T03:12:08;13.90;99.90
23114;DHT22;11726;50.122;8.832;2023-08-30T03:14:35;14.00;99.90
23114;DHT22;11726;50.122;8.832;2023-08-30T03:17:01;13.90;99.90
23114;DHT22;11726;50.122;8.832;2023-08-30T03:19:29;13.90;99.90
23114;DHT22;11726;50.122;8.832;2023-08-30T03:21:55;14.00;99.90
23114;DHT22;11726;50.122;8.832;2023-08-30T03:24:22;13.90;99.90
23114;DHT22;11726;50.122;8.832;2023-08-30T03:26:48;14.00;99.90
23114;DHT22;11726;50.122;8.832;2023-08-30T03:29:15;13.90;99.90
23114;DHT22;11726;50.122;8.832;2023-08-30T03:31:42;13.80;99.90
23114;DHT22;11726;50.122;8.832;2023-08-30T03:34:10;13.80;99.90
23114;DHT22;11726;50.122;8.832;2023-08-30T03:36:37;13.90;99.90
23114;DHT22;11726;50.122;8.832;2023-08-30T03:39:04;13.80;99.90
23114;DHT22;11726;50.122;8.832;2023-08-30T03:41:31;13.80;99.90
23114;DHT22;11726;50.122;8.832;2023-08-30T03:43:57;13.90;99.90
23114;DHT22;11726;50.122;8.832;2023-08-30T03:46:24;13.90;99.90
23114;DHT22;11726;50.122;8.832;2023-08-30T03:48:51;13.80;99.90
23114;DHT22;11726;50.122;8.832;2023-08-30T03:51:18;13.80;99.90
23114;DHT22;11726;50.122;8.832;2023-08-30T03:53:45;13.70;99.90
23114;DHT22;11726;50.122;8.832;2023-08-30T03:56:12;13.70;99.90
23114;DHT22;11726;50.122;8.832;2023-08-30T03:58:38;13.70;99.90
23114;DHT22;11726;50.122;8.832;2023-08-30T04:01:05;13.80;99.90
23114;DHT22;11726;50.122;8.832;2023-08-30T04:03:33;13.80;99.90
23114;DHT22;11726;50.122;8.832;2023-08-30T04:06:00;13.90;99.90
23114;DHT22;11726;50.122;8.832;2023-08-30T04:08:27;13.90;99.90
23114;DHT22;11726;50.122;8.832;2023-08-30T04:10:54;13.90;99.90
23114;DHT22;11726;50.122;8.832;2023-08-30T04:13:20;13.90;99.90
23114;DHT22;11726;50.122;8.832;2023-08-30T04:15:47;13.80;99.90
23114;DHT22;11726;50.122;8.832;2023-08-30T04:18:14;13.80;99.90
23114;DHT22;11726;50.122;8.832;2023-08-30T04:20:45;13.80;99.90
23114;DHT22;11726;50.122;8.832;2023-08-30T04:23:12;13.90;99.90
23114;DHT22;11726;50.122;8.832;2023-08-30T04:25:40;13.90;99.90
23114;DHT22;11726;50.122;8.832;2023-08-30T04:28:07;13.90;99.90
23114;DHT22;11726;50.122;8.832;2023-08-30T04:30:36;13.80;99.90
23114;DHT22;11726;50.122;8.832;2023-08-30T04:33:04;13.80;99.90
23114;DHT22;11726;50.122;8.832;2023-08-30T04:35:32;13.80;99.90
23114;DHT22;11726;50.122;8.832;2023-08-30T04:37:59;13.90;99.90
23114;DHT22;11726;50.122;8.832;2023-08-30T04:40:26;13.90;99.90
23114;DHT22;11726;50.122;8.832;2023-08-30T04:42:53;13.90;99.90
23114;DHT22;11726;50.122;8.832;2023-08-30T04:45:20;13.90;99.90
23114;DHT22;11726;50.122;8.832;2023-08-30T04:47:46;13.90;99.90
23114;DHT22;11726;50.122;8.832;2023-08-30T04:50:14;13.90;99.90
23114;DHT22;11726;50.122;8.832;2023-08-30T04:52:41;13.90;99.90
23114;DHT22;11726;50.122;8.832;2023-08-30T04:55:09;14.00;99.90
23114;DHT22;11726;50.122;8.832;2023-08-30T04:57:36;13.90;99.90
23114;DHT22;11726;50.122;8.832;2023-08-30T05:00:02;13.80;99.90
23114;DHT22;11726;50.122;8.832;2023-08-30T05:02:31;13.90;99.90
23114;DHT22;11726;50.122;8.832;2023-08-30T05:04:58;13.90;99.90
23114;DHT22;11726;50.122;8.832;2023-08-30T05:07:25;13.90;99.90
23114;DHT22;11726;50.122;8.832;2023-08-30T05:09:51;13.90;99.90
23114;DHT22;11726;50.122;8.832;2023-08-30T05:12:18;14.00;99.90
23114;DHT22;11726;50.122;8.832;2023-08-30T05:14:45;13.90;99.90
23114;DHT22;11726;50.122;8.832;2023-08-30T05:17:12;13.90;99.90
23114;DHT22;11726;50.122;8.832;2023-08-30T05:19:38;13.90;99.90
23114;DHT22;11726;50.122;8.832;2023-08-30T05:22:05;14.00;99.90
23114;DHT22;11726;50.122;8.832;2023-08-30T05:24:31;14.10;99.90
23114;DHT22;11726;50.122;8.832;2023-08-30T05:26:58;14.00;99.90
23114;DHT22;11726;50.122;8.832;2023-08-30T05:29:25;14.10;99.90
23114;DHT22;11726;50.122;8.832;2023-08-30T05:31:52;14.20;99.90
23114;DHT22;11726;50.122;8.832;2023-08-30T05:34:18;14.20;99.90
23114;DHT22;11726;50.122;8.832;2023-08-30T05:36:45;14.20;99.90
23114;DHT22;11726;50.122;8.832;2023-08-30T05:39:12;14.20;99.90
23114;DHT22;11726;50.122;8.832;2023-08-30T05:41:38;14.10;99.90
23114;DHT22;11726;50.122;8.832;2023-08-30T05:44:05;14.10;99.90
23114;DHT22;11726;50.122;8.832;2023-08-30T05:46:32;14.20;99.90
23114;DHT22;11726;50.122;8.832;2023-08-30T05:48:59;14.20;99.90
23114;DHT22;11726;50.122;8.832;2023-08-30T05:51:29;14.30;99.90
23114;DHT22;11726;50.122;8.832;2023-08-30T05:53:55;14.40;99.90
23114;DHT22;11726;50.122;8.832;2023-08-30T05:56:22;14.30;99.90
23114;DHT22;11726;50.122;8.832;2023-08-30T05:58:49;14.30;99.90
23114;DHT22;11726;50.122;8.832;2023-08-30T06:01:18;14.40;99.90
23114;DHT22;11726;50.122;8.832;2023-08-30T06:03:45;14.40;99.90
23114;DHT22;11726;50.122;8.832;2023-08-30T06:06:13;14.40;99.90
23114;DHT22;11726;50.122;8.832;2023-08-30T06:08:40;14.50;99.90
23114;DHT22;11726;50.122;8.832;2023-08-30T06:11:07;14.50;99.90
23114;DHT22;11726;50.122;8.832;2023-08-30T06:13:34;14.60;99.90
23114;DHT22;11726;50.122;8.832;2023-08-30T06:16:01;14.60;99.90
23114;DHT22;11726;50.122;8.832;2023-08-30T06:18:30;14.70;99.90
23114;DHT22;11726;50.122;8.832;2023-08-30T06:20:57;14.80;99.90
23114;DHT22;11726;50.122;8.832;2023-08-30T06:23:24;14.80;99.90
23114;DHT22;11726;50.122;8.832;2023-08-30T06:25:59;14.80;99.90
23114;DHT22;11726;50.122;8.832;2023-08-30T06:28:27;14.80;99.90
23114;DHT22;11726;50.122;8.832;2023-08-30T06:30:54;14.80;99.90
23114;DHT22;11726;50.122;8.832;2023-08-30T06:33:20;14.80;99.90
23114;DHT22;11726;50.122;8.832;2023-08-30T06:35:50;14.80;99.90
23114;DHT22;11726;50.122;8.832;2023-08-30T06:38:20;14.90;99.90
23114;DHT22;11726;50.122;8.832;2023-08-30T06:40:47;14.90;99.90
23114;DHT22;11726;50.122;8.832;2023-08-30T06:43:14;14.90;99.90
23114;DHT22;11726;50.122;8.832;2023-08-30T06:45:42;15.00;99.90
23114;DHT22;11726;50.122;8.832;2023-08-30T06:48:09;15.10;99.90
23114;DHT22;11726;50.122;8.832;2023-08-30T06:50:37;15.10;99.90
23114;DHT22;11726;50.122;8.832;2023-08-30T06:53:03;15.20;99.90
23114;DHT22;11726;50.122;8.832;2023-08-30T06:55:30;15.30;99.90
23114;DHT22;11726;50.122;8.832;2023-08-30T06:57:58;15.20;99.90
23114;DHT22;11726;50.122;8.832;2023-08-30T07:00:25;15.30;99.90
23114;DHT22;11726;50.122;8.832;2023-08-30T07:02:52;15.20;99.90
23114;DHT22;11726;50.122;8.832;2023-08-30T07:05:19;15.30;99.90
23114;DHT22;11726;50.122;8.832;2023-08-30T07:07:46;15.40;99.90
23114;DHT22;11726;50.122;8.832;2023-08-30T07:10:13;15.40;99.90
23114;DHT22;11726;50.122;8.832;2023-08-30T07:12:39;15.50;99.90
23114;DHT22;11726;50.122;8.832;2023-08-30T07:15:06;15.60;99.90
23114;DHT22;11726;50.122;8.832;2023-08-30T07:17:33;15.50;99.90
23114;DHT22;11726;50.122;8.832;2023-08-30T07:20:17;15.60;99.90
23114;DHT22;11726;50.122;8.832;2023-08-30T07:22:44;15.70;99.90
23114;DHT22;11726;50.122;8.832;2023-08-30T07:25:11;15.70;99.90
23114;DHT22;11726;50.122;8.832;2023-08-30T07:27:40;15.70;99.90
23114;DHT22;11726;50.122;8.832;2023-08-30T07:30:07;15.70;99.90
23114;DHT22;11726;50.122;8.832;2023-08-30T07:32:34;15.80;99.90
23114;DHT22;11726;50.122;8.832;2023-08-30T07:35:03;15.80;99.90
23114;DHT22;11726;50.122;8.832;2023-08-30T07:37:30;16.00;99.90
23114;DHT22;11726;50.122;8.832;2023-08-30T07:39:56;16.20;99.90
23114;DHT22;11726;50.122;8.832;2023-08-30T07:42:23;16.20;99.90
23114;DHT22;11726;50.122;8.832;2023-08-30T07:44:50;16.40;99.90
23114;DHT22;11726;50.122;8.832;2023-08-30T07:47:17;16.50;99.90
23114;DHT22;11726;50.122;8.832;2023-08-30T07:49:43;16.60;99.90
23114;DHT22;11726;50.122;8.832;2023-08-30T07:52:10;16.60;99.90
23114;DHT22;11726;50.122;8.832;2023-08-30T07:54:38;16.70;99.90
23114;DHT22;11726;50.122;8.832;2023-08-30T07:57:06;16.70;99.90
23114;DHT22;11726;50.122;8.832;2023-08-30T07:59:34;16.80;99.90
23114;DHT22;11726;50.122;8.832;2023-08-30T08:02:01;16.90;99.90
23114;DHT22;11726;50.122;8.832;2023-08-30T08:04:31;16.80;99.90
23114;DHT22;11726;50.122;8.832;2023-08-30T08:06:58;17.00;99.90
23114;DHT22;11726;50.122;8.832;2023-08-30T08:09:27;17.20;99.90
23114;DHT22;11726;50.122;8.832;2023-08-30T08:11:55;17.20;99.90
23114;DHT22;11726;50.122;8.832;2023-08-30T08:14:23;17.30;99.90
23114;DHT22;11726;50.122;8.832;2023-08-30T08:16:51;17.40;99.90
23114;DHT22;11726;50.122;8.832;2023-08-30T08:19:17;17.50;99.90
23114;DHT22;11726;50.122;8.832;2023-08-30T08:21:44;17.50;99.90
23114;DHT22;11726;50.122;8.832;2023-08-30T08:24:11;17.50;99.90
23114;DHT22;11726;50.122;8.832;2023-08-30T08:26:37;17.60;99.90
23114;DHT22;11726;50.122;8.832;2023-08-30T08:29:04;17.70;99.90
23114;DHT22;11726;50.122;8.832;2023-08-30T08:31:31;17.80;99.90
23114;DHT22;11726;50.122;8.832;2023-08-30T08:34:11;17.90;99.90
23114;DHT22;11726;50.122;8.832;2023-08-30T08:36:39;18.10;99.90
23114;DHT22;11726;50.122;8.832;2023-08-30T08:39:06;18.00;99.90
23114;DHT22;11726;50.122;8.832;2023-08-30T08:41:51;18.10;99.90
23114;DHT22;11726;50.122;8.832;2023-08-30T08:44:22;18.00;99.90
23114;DHT22;11726;50.122;8.832;2023-08-30T08:46:51;18.20;99.90
23114;DHT22;11726;50.122;8.832;2023-08-30T08:49:19;18.30;99.90
23114;DHT22;11726;50.122;8.832;2023-08-30T08:51:46;18.20;99.90
23114;DHT22;11726;50.122;8.832;2023-08-30T08:54:13;18.40;99.90
23114;DHT22;11726;50.122;8.832;2023-08-30T08:56:40;18.50;99.90
23114;DHT22;11726;50.122;8.832;2023-08-30T08:59:07;18.50;99.90
23114;DHT22;11726;50.122;8.832;2023-08-30T09:01:35;18.70;99.90
23114;DHT22;11726;50.122;8.832;2023-08-30T09:04:07;18.70;99.90
23114;DHT22;11726;50.122;8.832;2023-08-30T09:06:34;18.50;99.90
23114;DHT22;11726;50.122;8.832;2023-08-30T09:09:03;18.50;99.90
23114;DHT22;11726;50.122;8.832;2023-08-30T09:11:34;18.50;99.90
23114;DHT22;11726;50.122;8.832;2023-08-30T09:14:16;18.80;99.90
23114;DHT22;11726;50.122;8.832;2023-08-30T09:16:54;18.90;99.90
23114;DHT22;11726;50.122;8.832;2023-08-30T09:19:21;18.90;99.90
23114;DHT22;11726;50.122;8.832;2023-08-30T09:21:56;18.90;99.90
23114;DHT22;11726;50.122;8.832;2023-08-30T09:24:23;18.70;99.90
23114;DHT22;11726;50.122;8.832;2023-08-30T09:26:52;18.80;99.90
23114;DHT22;11726;50.122;8.832;2023-08-30T09:29:21;19.00;99.90
23114;DHT22;11726;50.122;8.832;2023-08-30T09:31:51;19.10;99.90
23114;DHT22;11726;50.122;8.832;2023-08-30T09:34:23;19.30;99.90
23114;DHT22;11726;50.122;8.832;2023-08-30T09:36:51;19.30;99.90
23114;DHT22;11726;50.122;8.832;2023-08-30T09:39:18;19.30;99.90
23114;DHT22;11726;50.122;8.832;2023-08-30T09:41:49;19.20;99.90
23114;DHT22;11726;50.122;8.832;2023-08-30T09:44:17;19.20;99.90
23114;DHT22;11726;50.122;8.832;2023-08-30T09:46:46;19.20;99.90
23114;DHT22;11726;50.122;8.832;2023-08-30T09:49:20;19.30;99.90
23114;DHT22;11726;50.122;8.832;2023-08-30T09:51:49;19.30;99.90
23114;DHT22;11726;50.122;8.832;2023-08-30T09:54:18;19.20;99.90
23114;DHT22;11726;50.122;8.832;2023-08-30T09:57:04;19.20;99.90
23114;DHT22;11726;50.122;8.832;2023-08-30T09:59:32;19.30;99.90
23114;DHT22;11726;50.122;8.832;2023-08-30T10:01:59;19.40;99.90
23114;DHT22;11726;50.122;8.832;2023-08-30T10:04:29;19.50;99.90
23114;DHT22;11726;50.122;8.832;2023-08-30T10:06:58;19.50;99.90
23114;DHT22;11726;50.122;8.832;2023-08-30T10:09:25;19.70;99.90
23114;DHT22;11726;50.122;8.832;2023-08-30T10:11:52;19.70;99.90
23114;DHT22;11726;50.122;8.832;2023-08-30T10:14:19;19.80;99.90
23114;DHT22;11726;50.122;8.832;2023-08-30T10:16:47;19.80;99.90
23114;DHT22;11726;50.122;8.832;2023-08-30T10:21:45;19.80;99.90
23114;DHT22;11726;50.122;8.832;2023-08-30T10:24:19;19.80;99.90
23114;DHT22;11726;50.122;8.832;2023-08-30T10:27:00;19.90;99.90
23114;DHT22;11726;50.122;8.832;2023-08-30T10:29:28;20.10;99.90
23114;DHT22;11726;50.122;8.832;2023-08-30T10:31:56;20.20;99.90
23114;DHT22;11726;50.122;8.832;2023-08-30T10:34:32;20.30;99.90
23114;DHT22;11726;50.122;8.832;2023-08-30T10:37:00;20.50;99.90
23114;DHT22;11726;50.122;8.832;2023-08-30T10:39:35;20.50;99.90
23114;DHT22;11726;50.122;8.832;2023-08-30T10:42:15;20.40;99.90
23114;DHT22;11726;50.122;8.832;2023-08-30T10:44:56;20.50;99.90
23114;DHT22;11726;50.122;8.832;2023-08-30T10:47:39;20.50;99.90
23114;DHT22;11726;50.122;8.832;2023-08-30T10:50:11;20.40;99.90
23114;DHT22;11726;50.122;8.832;2023-08-30T10:52:39;20.60;99.90
23114;DHT22;11726;50.122;8.832;2023-08-30T10:57:37;20.90;99.90
23114;DHT22;11726;50.122;8.832;2023-08-30T11:02:45;21.00;99.90
23114;DHT22;11726;50.122;8.832;2023-08-30T11:05:13;21.00;99.90
23114;DHT22;11726;50.122;8.832;2023-08-30T11:07:43;21.10;99.90
23114;DHT22;11726;50.122;8.832;2023-08-30T11:10:10;21.40;99.90
23114;DHT22;11726;50.122;8.832;2023-08-30T11:12:36;21.60;99.90
23114;DHT22;11726;50.122;8.832;2023-08-30T11:15:04;21.80;99.90
23114;DHT22;11726;50.122;8.832;2023-08-30T11:17:33;21.90;99.90
23114;DHT22;11726;50.122;8.832;2023-08-30T11:20:10;22.00;99.90
23114;DHT22;11726;50.122;8.832;2023-08-30T11:22:45;22.10;99.90
23114;DHT22;11726;50.122;8.832;2023-08-30T11:25:13;22.20;99.90
23114;DHT22;11726;50.122;8.832;2023-08-30T11:27:40;21.80;99.90
23114;DHT22;11726;50.122;8.832;2023-08-30T11:30:09;21.90;99.90
23114;DHT22;11726;50.122;8.832;2023-08-30T11:32:37;22.00;99.90
23114;DHT22;11726;50.122;8.832;2023-08-30T11:35:05;21.90;99.90
23114;DHT22;11726;50.122;8.832;2023-08-30T11:37:32;22.00;99.90
23114;DHT22;11726;50.122;8.832;2023-08-30T11:40:00;22.00;99.90
23114;DHT22;11726;50.122;8.832;2023-08-30T11:42:27;22.30;99.90
23114;DHT22;11726;50.122;8.832;2023-08-30T11:44:54;22.50;99.90
23114;DHT22;11726;50.122;8.832;2023-08-30T11:47:24;22.60;99.90
23114;DHT22;11726;50.122;8.832;2023-08-30T11:49:56;22.50;99.90
23114;DHT22;11726;50.122;8.832;2023-08-30T11:52:24;22.80;99.90
23114;DHT22;11726;50.122;8.832;2023-08-30T11:54:52;22.70;99.90
23114;DHT22;11726;50.122;8.832;2023-08-30T11:57:19;22.60;99.90
23114;DHT22;11726;50.122;8.832;2023-08-30T11:59:47;22.50;99.90
23114;DHT22;11726;50.122;8.832;2023-08-30T12:02:16;22.60;99.90
23114;DHT22;11726;50.122;8.832;2023-08-30T12:04:45;22.70;99.90
23114;DHT22;11726;50.122;8.832;2023-08-30T12:07:25;22.60;99.90
23114;DHT22;11726;50.122;8.832;2023-08-30T12:10:07;22.80;99.90
23114;DHT22;11726;50.122;8.832;2023-08-30T12:12:35;23.00;99.90
23114;DHT22;11726;50.122;8.832;2023-08-30T12:15:11;22.60;99.90
23114;DHT22;11726;50.122;8.832;2023-08-30T12:17:38;22.50;99.90
23114;DHT22;11726;50.122;8.832;2023-08-30T12:20:05;22.60;99.90
23114;DHT22;11726;50.122;8.832;2023-08-30T12:22:39;22.70;99.90
23114;DHT22;11726;50.122;8.832;2023-08-30T12:25:16;22.80;99.90
23114;DHT22;11726;50.122;8.832;2023-08-30T12:27:44;22.80;99.90
23114;DHT22;11726;50.122;8.832;2023-08-30T12:30:11;22.80;99.90
23114;DHT22;11726;50.122;8.832;2023-08-30T12:32:38;23.00;99.90
23114;DHT22;11726;50.122;8.832;2023-08-30T12:35:05;23.10;99.90
23114;DHT22;11726;50.122;8.832;2023-08-30T12:37:31;23.10;99.90
23114;DHT22;11726;50.122;8.832;2023-08-30T12:39:58;22.90;99.90
23114;DHT22;11726;50.122;8.832;2023-08-30T12:42:25;23.00;99.90
23114;DHT22;11726;50.122;8.832;2023-08-30T12:44:52;22.90;99.90
23114;DHT22;11726;50.122;8.832;2023-08-30T12:47:19;22.80;99.90
23114;DHT22;11726;50.122;8.832;2023-08-30T12:49:46;23.20;99.90
23114;DHT22;11726;50.122;8.832;2023-08-30T12:52:12;23.30;99.90
23114;DHT22;11726;50.122;8.832;2023-08-30T12:54:39;23.70;99.90
23114;DHT22;11726;50.122;8.832;2023-08-30T12:57:06;23.80;99.90
23114;DHT22;11726;50.122;8.832;2023-08-30T12:59:33;23.90;99.90
23114;DHT22;11726;50.122;8.832;2023-08-30T13:02:00;23.80;99.90
23114;DHT22;11726;50.122;8.832;2023-08-30T13:04:27;24.00;99.90
23114;DHT22;11726;50.122;8.832;2023-08-30T13:06:54;23.90;99.90
23114;DHT22;11726;50.122;8.832;2023-08-30T13:09:21;24.00;99.90
23114;DHT22;11726;50.122;8.832;2023-08-30T13:11:48;23.90;99.90
23114;DHT22;11726;50.122;8.832;2023-08-30T13:14:14;24.30;99.90
23114;DHT22;11726;50.122;8.832;2023-08-30T13:16:41;24.70;99.90
23114;DHT22;11726;50.122;8.832;2023-08-30T13:19:08;24.60;99.90
23114;DHT22;11726;50.122;8.832;2023-08-30T13:21:35;24.50;99.60
23114;DHT22;11726;50.122;8.832;2023-08-30T13:24:07;24.70;99.90
23114;DHT22;11726;50.122;8.832;2023-08-30T13:29:21;24.70;99.90
23114;DHT22;11726;50.122;8.832;2023-08-30T13:31:50;25.10;99.90
23114;DHT22;11726;50.122;8.832;2023-08-30T13:34:16;25.10;94.50
23114;DHT22;11726;50.122;8.832;2023-08-30T13:36:43;24.80;93.60
23114;DHT22;11726;50.122;8.832;2023-08-30T13:39:10;24.70;91.80
23114;DHT22;11726;50.122;8.832;2023-08-30T13:41:37;24.90;92.70
23114;DHT22;11726;50.122;8.832;2023-08-30T13:44:04;25.30;91.30
23114;DHT22;11726;50.122;8.832;2023-08-30T13:46:31;25.30;89.40
23114;DHT22;11726;50.122;8.832;2023-08-30T13:48:58;25.20;91.10
23114;DHT22;11726;50.122;8.832;2023-08-30T13:51:26;25.20;87.20
23114;DHT22;11726;50.122;8.832;2023-08-30T13:53:53;25.10;85.40
23114;DHT22;11726;50.122;8.832;2023-08-30T13:56:20;25.00;85.50
23114;DHT22;11726;50.122;8.832;2023-08-30T13:58:46;24.70;84.50
23114;DHT22;11726;50.122;8.832;2023-08-30T14:01:13;24.90;86.30
23114;DHT22;11726;50.122;8.832;2023-08-30T14:03:41;25.00;82.60
23114;DHT22;11726;50.122;8.832;2023-08-30T14:06:07;24.60;82.10
23114;DHT22;11726;50.122;8.832;2023-08-30T14:08:35;24.60;83.30
23114;DHT22;11726;50.122;8.832;2023-08-30T14:11:01;24.70;84.50
23114;DHT22;11726;50.122;8.832;2023-08-30T14:13:28;24.80;83.20
23114;DHT22;11726;50.122;8.832;2023-08-30T14:16:02;24.80;82.50
23114;DHT22;11726;50.122;8.832;2023-08-30T14:18:30;24.60;82.20
23114;DHT22;11726;50.122;8.832;2023-08-30T14:20:58;24.70;82.80
23114;DHT22;11726;50.122;8.832;2023-08-30T14:23:26;25.10;84.30
23114;DHT22;11726;50.122;8.832;2023-08-30T14:26:00;24.80;84.20
23114;DHT22;11726;50.122;8.832;2023-08-30T14:28:27;24.70;85.40
23114;DHT22;11726;50.122;8.832;2023-08-30T14:30:54;24.20;86.10
23114;DHT22;11726;50.122;8.832;2023-08-30T14:33:21;23.80;89.80
23114;DHT22;11726;50.122;8.832;2023-08-30T14:35:48;23.90;89.50
23114;DHT22;11726;50.122;8.832;2023-08-30T14:38:14;23.70;90.00
23114;DHT22;11726;50.122;8.832;2023-08-30T14:40:41;23.70;90.10
23114;DHT22;11726;50.122;8.832;2023-08-30T14:43:08;24.20;89.60
23114;DHT22;11726;50.122;8.832;2023-08-30T14:45:35;24.50;88.20
23114;DHT22;11726;50.122;8.832;2023-08-30T14:48:02;24.20;88.30
23114;DHT22;11726;50.122;8.832;2023-08-30T14:50:28;23.90;90.30
23114;DHT22;11726;50.122;8.832;2023-08-30T14:52:55;24.30;91.40
23114;DHT22;11726;50.122;8.832;2023-08-30T14:55:22;24.30;90.50
23114;DHT22;11726;50.122;8.832;2023-08-30T14:57:51;23.80;91.60
23114;DHT22;11726;50.122;8.832;2023-08-30T15:00:18;23.80;92.40
23114;DHT22;11726;50.122;8.832;2023-08-30T15:02:45;23.70;92.50
23114;DHT22;11726;50.122;8.832;2023-08-30T15:05:12;23.40;93.30
23114;DHT22;11726;50.122;8.832;2023-08-30T15:07:39;23.60;92.00
23114;DHT22;11726;50.122;8.832;2023-08-30T15:10:06;23.50;92.90
23114;DHT22;11726;50.122;8.832;2023-08-30T15:12:32;23.50;92.10
23114;DHT22;11726;50.122;8.832;2023-08-30T15:14:59;23.20;92.00
23114;DHT22;11726;50.122;8.832;2023-08-30T15:17:26;23.30;92.60
23114;DHT22;11726;50.122;8.832;2023-08-30T15:19:52;23.50;92.20
23114;DHT22;11726;50.122;8.832;2023-08-30T15:22:20;23.70;92.90
23114;DHT22;11726;50.122;8.832;2023-08-30T15:24:47;23.50;92.20
23114;DHT22;11726;50.122;8.832;2023-08-30T15:27:14;23.30;93.00
23114;DHT22;11726;50.122;8.832;2023-08-30T15:29:42;23.00;91.90
23114;DHT22;11726;50.122;8.832;2023-08-30T15:32:09;22.80;94.10
23114;DHT22;11726;50.122;8.832;2023-08-30T15:34:36;22.80;95.30
23114;DHT22;11726;50.122;8.832;2023-08-30T15:37:03;22.80;94.90
23114;DHT22;11726;50.122;8.832;2023-08-30T15:39:30;23.10;94.30
23114;DHT22;11726;50.122;8.832;2023-08-30T15:41:57;23.20;95.80
23114;DHT22;11726;50.122;8.832;2023-08-30T15:44:24;23.20;93.50
23114;DHT22;11726;50.122;8.832;2023-08-30T15:46:50;23.40;93.80